createdAt,value
2018-01-12T00:00:19.768Z,80.5
2018-01-12T00:01:00.292Z,80.6
2018-01-12T00:01:40.856Z,80.79
2018-01-12T00:02:21.400Z,79.93
2018-01-12T00:03:01.994Z,80.31
2018-01-12T00:03:42.570Z,81.26
2018-01-12T00:04:23.107Z,81.65
2018-01-12T00:05:03.623Z,81.07
2018-01-12T00:05:44.149Z,81.07
2018-01-12T00:06:24.668Z,80.79
2018-01-12T00:07:05.262Z,80.69
2018-01-12T00:07:45.727Z,81.17
2018-01-12T00:08:26.482Z,80.98
2018-01-12T00:09:06.992Z,80.98
2018-01-12T00:09:47.541Z,81.46
2018-01-12T00:10:28.070Z,80.88
2018-01-12T00:11:08.626Z,81.26
2018-01-12T00:11:49.286Z,81.74
2018-01-12T00:12:29.822Z,81.93
2018-01-12T00:13:10.369Z,81.65
2018-01-12T00:13:50.876Z,82.03
2018-01-12T00:14:31.456Z,81.93
2018-01-12T00:15:12.015Z,82.03
2018-01-12T00:15:52.634Z,81.55
2018-01-12T00:16:37.595Z,81.51
2018-01-12T00:17:17.259Z,81.74
2018-01-12T00:17:57.795Z,81.65
2018-01-12T00:18:38.343Z,81.93
2018-01-12T00:19:18.907Z,81.65
2018-01-12T00:19:59.426Z,81.55
2018-01-12T00:20:39.986Z,81.17
2018-01-12T00:21:20.516Z,81.26
2018-01-12T00:22:01.051Z,80.88
2018-01-12T00:22:41.909Z,81.65
2018-01-12T00:23:22.510Z,80.98
2018-01-12T00:24:03.054Z,81.07
2018-01-12T00:24:43.516Z,81.55
2018-01-12T00:25:24.081Z,81.93
2018-01-12T00:26:04.622Z,81.65
2018-01-12T00:26:45.174Z,81.46
2018-01-12T00:27:25.767Z,81.55
2018-01-12T00:28:06.292Z,81.26
2018-01-12T00:28:46.837Z,81.36
2018-01-12T00:29:27.419Z,80.98
2018-01-12T00:30:07.896Z,80.98
2018-01-12T00:30:48.517Z,80.79
2018-01-12T00:31:29.063Z,81.07
2018-01-12T00:32:09.549Z,80.41
2018-01-12T00:32:50.130Z,81.07
2018-01-12T00:33:30.651Z,81.36
2018-01-12T00:34:11.130Z,80.41
2018-01-12T00:34:51.677Z,80.41
2018-01-12T00:35:32.280Z,80.98
2018-01-12T00:36:12.841Z,81.07
2018-01-12T00:36:53.348Z,80.98
2018-01-12T00:37:33.921Z,80.79
2018-01-12T00:38:14.531Z,80.98
2018-01-12T00:38:55.036Z,80.88
2018-01-12T00:39:35.604Z,81.07
2018-01-12T00:40:16.172Z,80.98
2018-01-12T00:40:56.721Z,81.17
2018-01-12T00:41:37.267Z,80.98
2018-01-12T00:42:17.830Z,80.79
2018-01-12T00:42:58.377Z,81.17
2018-01-12T00:43:38.853Z,80.88
2018-01-12T00:44:19.449Z,80.79
2018-01-12T00:45:00.014Z,80.98
2018-01-12T00:45:40.557Z,80.98
2018-01-12T00:46:21.103Z,80.41
2018-01-12T00:47:01.615Z,81.17
2018-01-12T00:47:42.168Z,80.88
2018-01-12T00:48:22.783Z,80.98
2018-01-12T00:49:03.298Z,81.17
2018-01-12T00:49:43.876Z,80.69
2018-01-12T00:50:24.343Z,80.79
2018-01-12T00:51:04.906Z,80.88
2018-01-12T00:51:45.492Z,81.07
2018-01-12T00:52:26.008Z,81.07
2018-01-12T00:53:06.526Z,81.46
2018-01-12T00:53:47.080Z,81.46
2018-01-12T00:54:27.579Z,81.36
2018-01-12T00:55:08.168Z,81.55
2018-01-12T00:55:48.649Z,81.36
2018-01-12T00:56:29.213Z,81.65
2018-01-12T00:57:09.752Z,80.79
2018-01-12T00:57:50.313Z,81.55
2018-01-12T00:58:30.892Z,81.26
2018-01-12T00:59:11.444Z,80.98
2018-01-12T00:59:51.962Z,81.55
2018-01-12T01:00:32.486Z,81.46
2018-01-12T01:01:13.059Z,81.36
2018-01-12T01:01:53.552Z,81.36
2018-01-12T01:02:34.164Z,81.36
2018-01-12T01:03:14.658Z,81.26
2018-01-12T01:03:55.169Z,81.36
2018-01-12T01:04:35.676Z,81.55
2018-01-12T01:05:16.266Z,81.55
2018-01-12T01:05:56.738Z,81.36
2018-01-12T01:06:37.316Z,81.46
2018-01-12T01:07:17.821Z,81.55
2018-01-12T01:07:58.359Z,81.84
2018-01-12T01:08:38.859Z,81.93
2018-01-12T01:09:19.409Z,81.84
2018-01-12T01:10:00.021Z,81.55
2018-01-12T01:10:40.593Z,81.55
2018-01-12T01:11:21.061Z,81.55
2018-01-12T01:12:01.676Z,81.46
2018-01-12T01:12:42.252Z,81.07
2018-01-12T01:13:22.708Z,81.32
2018-01-12T01:14:03.240Z,81.6
2018-01-12T01:14:43.817Z,81.98
2018-01-12T01:15:24.355Z,81.7
2018-01-12T01:16:04.870Z,81.89
2018-01-12T01:16:45.504Z,82.12
2018-01-12T01:17:26.012Z,81.46
2018-01-12T01:18:06.579Z,81.7
2018-01-12T01:18:47.079Z,81.74
2018-01-12T01:19:27.710Z,81.46
2018-01-12T01:20:08.168Z,81.93
2018-01-12T01:20:48.730Z,81.55
2018-01-12T01:21:29.245Z,82.08
2018-01-12T01:22:09.795Z,82.12
2018-01-12T01:22:50.331Z,81.84
2018-01-12T01:23:30.893Z,81.74
2018-01-12T01:24:11.411Z,81.55
2018-01-12T01:24:52.035Z,81.74
2018-01-12T01:25:32.620Z,81.55
2018-01-12T01:26:13.143Z,81.46
2018-01-12T01:26:53.691Z,81.46
2018-01-12T01:27:34.318Z,80.98
2018-01-12T01:28:14.839Z,80.88
2018-01-12T01:28:55.434Z,81.26
2018-01-12T01:29:35.953Z,81.17
2018-01-12T01:30:16.493Z,81.17
2018-01-12T01:30:57.096Z,81.26
2018-01-12T01:31:37.621Z,81.07
2018-01-12T01:32:18.252Z,80.69
2018-01-12T01:32:58.821Z,81.17
2018-01-12T01:33:39.398Z,81.26
2018-01-12T01:34:20.044Z,80.69
2018-01-12T01:35:00.572Z,80.79
2018-01-12T01:35:41.121Z,81.07
2018-01-12T01:36:21.661Z,80.88
2018-01-12T01:37:02.168Z,80.69
2018-01-12T01:37:42.732Z,80.98
2018-01-12T01:38:23.255Z,81.17
2018-01-12T01:39:03.744Z,81.17
2018-01-12T01:39:44.242Z,80.41
2018-01-12T01:40:24.930Z,80.31
2018-01-12T01:41:05.449Z,80.88
2018-01-12T01:41:46.024Z,80.69
2018-01-12T01:42:26.534Z,81.07
2018-01-12T01:43:07.130Z,80.94
2018-01-12T01:43:47.698Z,80.79
2018-01-12T01:44:28.224Z,80.88
2018-01-12T01:45:08.741Z,80.79
2018-01-12T01:45:49.304Z,80.94
2018-01-12T01:46:29.837Z,81.51
2018-01-12T01:47:10.548Z,81.36
2018-01-12T01:47:51.087Z,81.17
2018-01-12T01:48:31.616Z,81.26
2018-01-12T01:49:12.241Z,81.6
2018-01-12T01:49:52.813Z,81.36
2018-01-12T01:50:33.303Z,81.55
2018-01-12T01:51:13.890Z,81.23
2018-01-12T01:51:54.450Z,81.55
2018-01-12T01:52:34.940Z,80.94
2018-01-12T01:53:15.526Z,81.26
2018-01-12T01:53:56.046Z,81.51
2018-01-12T01:54:36.565Z,81.65
2018-01-12T01:55:17.187Z,81.17
2018-01-12T01:55:57.703Z,80.84
2018-01-12T01:56:38.222Z,80.79
2018-01-12T01:57:18.770Z,80.22
2018-01-12T01:57:59.293Z,80.36
2018-01-12T01:58:39.946Z,80.36
2018-01-12T01:59:20.494Z,80.36
2018-01-12T02:00:01.008Z,80.55
2018-01-12T02:00:41.550Z,79.89
2018-01-12T02:01:22.105Z,80.27
2018-01-12T02:02:02.664Z,79.89
2018-01-12T02:02:43.148Z,80.08
2018-01-12T02:03:23.673Z,80.55
2018-01-12T02:04:04.237Z,79.99
2018-01-12T02:04:44.819Z,80.27
2018-01-12T02:05:25.371Z,79.99
2018-01-12T02:06:05.871Z,80.18
2018-01-12T02:06:46.428Z,79.99
2018-01-12T02:07:26.962Z,80.18
2018-01-12T02:08:07.478Z,80.27
2018-01-12T02:08:47.995Z,80.36
2018-01-12T02:09:28.535Z,80.08
2018-01-12T02:10:09.068Z,80.18
2018-01-12T02:10:49.625Z,80.18
2018-01-12T02:11:30.242Z,80.27
2018-01-12T02:12:10.742Z,79.99
2018-01-12T02:12:51.277Z,80.18
2018-01-12T02:13:31.888Z,79.99
2018-01-12T02:14:12.409Z,80.08
2018-01-12T02:14:52.959Z,80.18
2018-01-12T02:15:33.498Z,80.27
2018-01-12T02:16:14.071Z,80.36
2018-01-12T02:16:54.620Z,80.08
2018-01-12T02:17:35.103Z,79.99
2018-01-12T02:18:15.656Z,80.08
2018-01-12T02:18:56.158Z,80.18
2018-01-12T02:19:36.735Z,79.89
2018-01-12T02:20:17.255Z,80.55
2018-01-12T02:20:57.774Z,81.13
2018-01-12T02:21:38.317Z,80.46
2018-01-12T02:22:18.886Z,80.36
2018-01-12T02:22:59.425Z,79.99
2018-01-12T02:23:39.894Z,80.33
2018-01-12T02:24:20.481Z,81.28
2018-01-12T02:25:00.982Z,81.03
2018-01-12T02:25:41.516Z,80.99
2018-01-12T02:26:22.175Z,80.84
2018-01-12T02:27:02.733Z,80.8
2018-01-12T02:27:43.294Z,80.84
2018-01-12T02:28:23.851Z,80.84
2018-01-12T02:29:04.409Z,80.84
2018-01-12T02:29:44.944Z,80.36
2018-01-12T02:30:25.451Z,80.55
2018-01-12T02:31:06.004Z,79.99
2018-01-12T02:31:46.600Z,80.27
2018-01-12T02:32:27.139Z,80.18
2018-01-12T02:33:07.644Z,80.27
2018-01-12T02:33:48.227Z,80.27
2018-01-12T02:34:28.818Z,80.18
2018-01-12T02:35:09.314Z,80.18
2018-01-12T02:35:49.824Z,80.08
2018-01-12T02:36:30.374Z,80.27
2018-01-12T02:37:10.951Z,80.36
2018-01-12T02:37:51.477Z,80.08
2018-01-12T02:38:32.018Z,80.18
2018-01-12T02:39:12.553Z,79.99
2018-01-12T02:39:53.235Z,80.08
2018-01-12T02:40:33.789Z,79.8
2018-01-12T02:41:14.347Z,79.41
2018-01-12T02:41:54.850Z,79.6
2018-01-12T02:42:35.401Z,79.51
2018-01-12T02:43:15.971Z,79.51
2018-01-12T02:43:56.493Z,79.41
2018-01-12T02:44:36.971Z,79.51
2018-01-12T02:45:17.536Z,79.8
2018-01-12T02:45:58.040Z,79.13
2018-01-12T02:46:38.548Z,78.94
2018-01-12T02:47:19.217Z,79.6
2018-01-12T02:47:59.763Z,79.7
2018-01-12T02:48:40.369Z,80.08
2018-01-12T02:49:20.829Z,79.41
2018-01-12T02:50:01.400Z,79.6
2018-01-12T02:50:41.965Z,79.6
2018-01-12T02:51:22.499Z,79.41
2018-01-12T02:52:03.021Z,79.89
2018-01-12T02:52:43.500Z,79.6
2018-01-12T02:53:24.029Z,79.7
2018-01-12T02:54:04.616Z,80.08
2018-01-12T02:54:45.182Z,80.27
2018-01-12T02:55:25.698Z,79.99
2018-01-12T02:56:06.219Z,79.41
2018-01-12T02:56:46.805Z,79.6
2018-01-12T02:57:27.346Z,79.51
2018-01-12T02:58:07.887Z,80.08
2018-01-12T02:58:48.451Z,79.99
2018-01-12T02:59:28.985Z,80.18
2018-01-12T03:00:09.438Z,80.08
2018-01-12T03:00:50.024Z,80.36
2018-01-12T03:01:30.589Z,80.46
2018-01-12T03:02:11.064Z,80.18
2018-01-12T03:02:51.565Z,79.41
2018-01-12T03:03:32.198Z,79.51
2018-01-12T03:04:12.644Z,79.8
2018-01-12T03:04:53.172Z,79.51
2018-01-12T03:05:33.748Z,80.04
2018-01-12T03:06:14.280Z,80.04
2018-01-12T03:06:54.822Z,80.23
2018-01-12T03:07:35.325Z,80.23
2018-01-12T03:08:15.830Z,80.04
2018-01-12T03:08:56.357Z,79.85
2018-01-12T03:09:36.952Z,80.13
2018-01-12T03:10:17.528Z,80.13
2018-01-12T03:10:58.064Z,80.23
2018-01-12T03:11:38.584Z,80.04
2018-01-12T03:12:19.166Z,80.33
2018-01-12T03:12:59.705Z,80.27
2018-01-12T03:13:40.276Z,80.33
2018-01-12T03:14:20.914Z,80.46
2018-01-12T03:15:01.482Z,80.04
2018-01-12T03:15:42.042Z,79.8
2018-01-12T03:16:22.556Z,79.8
2018-01-12T03:17:03.107Z,79.47
2018-01-12T03:17:43.725Z,79.51
2018-01-12T03:18:24.273Z,79.47
2018-01-12T03:19:04.696Z,79.85
2018-01-12T03:19:45.297Z,80.13
2018-01-12T03:20:25.877Z,80.04
2018-01-12T03:21:06.340Z,79.85
2018-01-12T03:21:46.915Z,80.13
2018-01-12T03:22:27.397Z,80.23
2018-01-12T03:23:07.940Z,80.04
2018-01-12T03:23:48.523Z,80.23
2018-01-12T03:24:29.021Z,79.85
2018-01-12T03:25:09.509Z,79.57
2018-01-12T03:25:50.057Z,79.57
2018-01-12T03:26:30.639Z,79.38
2018-01-12T03:27:11.120Z,79.47
2018-01-12T03:27:51.606Z,79.38
2018-01-12T03:28:32.848Z,79.47
2018-01-12T03:29:13.364Z,79.75
2018-01-12T03:29:53.903Z,79.66
2018-01-12T03:30:34.431Z,79.66
2018-01-12T03:31:14.969Z,79.57
2018-01-12T03:31:55.458Z,79.47
2018-01-12T03:32:36.003Z,79.57
2018-01-12T03:33:16.560Z,79.57
2018-01-12T03:33:57.076Z,79.47
2018-01-12T03:34:37.715Z,79.38
2018-01-12T03:35:18.249Z,79.47
2018-01-12T03:35:58.791Z,79.75
2018-01-12T03:36:39.309Z,79.94
2018-01-12T03:37:19.838Z,80.13
2018-01-12T03:38:00.375Z,79.66
2018-01-12T03:38:40.927Z,79.57
2018-01-12T03:39:21.494Z,79.38
2018-01-12T03:40:02.036Z,79.66
2018-01-12T03:40:42.514Z,79.38
2018-01-12T03:41:23.072Z,79.75
2018-01-12T03:42:03.605Z,79.85
2018-01-12T03:42:44.166Z,78.8
2018-01-12T03:43:24.745Z,78.99
2018-01-12T03:44:05.227Z,79.66
2018-01-12T03:44:45.740Z,79.47
2018-01-12T03:45:26.400Z,79.57
2018-01-12T03:46:06.870Z,79.75
2018-01-12T03:46:47.344Z,79.09
2018-01-12T03:47:27.940Z,78.9
2018-01-12T03:48:08.431Z,79.66
2018-01-12T03:48:49.002Z,79.66
2018-01-12T03:49:29.625Z,79.75
2018-01-12T03:50:10.187Z,79.19
2018-01-12T03:50:50.638Z,79.09
2018-01-12T03:51:31.215Z,79.19
2018-01-12T03:52:11.714Z,79.09
2018-01-12T03:52:52.228Z,78.9
2018-01-12T03:53:32.854Z,79.38
2018-01-12T03:54:13.296Z,79.57
2018-01-12T03:54:53.840Z,78.9
2018-01-12T03:55:34.426Z,79.28
2018-01-12T03:56:14.976Z,79.19
2018-01-12T03:56:55.556Z,79.38
2018-01-12T03:57:36.080Z,79.19
2018-01-12T03:58:16.594Z,79.38
2018-01-12T03:58:57.169Z,79.47
2018-01-12T03:59:37.726Z,79.09
2018-01-12T04:00:18.242Z,78.8
2018-01-12T04:00:58.800Z,79.28
2018-01-12T04:01:39.364Z,78.99
2018-01-12T04:02:19.890Z,79.75
2018-01-12T04:03:00.424Z,79.85
2018-01-12T04:03:40.939Z,79.75
2018-01-12T04:04:21.513Z,79.66
2018-01-12T04:05:02.097Z,79.66
2018-01-12T04:05:42.579Z,79.09
2018-01-12T04:06:23.134Z,79.47
2018-01-12T04:07:03.682Z,78.71
2018-01-12T04:07:44.200Z,78.99
2018-01-12T04:08:24.731Z,79.19
2018-01-12T04:09:05.250Z,78.8
2018-01-12T04:09:45.831Z,78.9
2018-01-12T04:10:26.326Z,78.99
2018-01-12T04:11:06.912Z,78.99
2018-01-12T04:11:47.423Z,79.75
2018-01-12T04:12:27.960Z,79.57
2018-01-12T04:13:08.595Z,79.38
2018-01-12T04:13:49.140Z,79.38
2018-01-12T04:14:29.695Z,79.75
2018-01-12T04:15:10.273Z,79.66
2018-01-12T04:15:50.807Z,79.66
2018-01-12T04:16:31.572Z,79.57
2018-01-12T04:17:12.060Z,79.75
2018-01-12T04:17:52.610Z,79.75
2018-01-12T04:18:33.156Z,79.85
2018-01-12T04:19:13.652Z,79.75
2018-01-12T04:19:54.242Z,80.04
2018-01-12T04:20:34.781Z,80.04
2018-01-12T04:21:15.332Z,80.13
2018-01-12T04:21:55.880Z,80.04
2018-01-12T04:22:36.411Z,79.66
2018-01-12T04:23:16.896Z,79.66
2018-01-12T04:23:57.500Z,79.38
2018-01-12T04:24:38.095Z,79.75
2018-01-12T04:25:18.640Z,80.13
2018-01-12T04:25:59.184Z,80.23
2018-01-12T04:26:39.733Z,80.04
2018-01-12T04:27:20.349Z,80.04
2018-01-12T04:28:00.945Z,80.04
2018-01-12T04:28:41.529Z,79.75
2018-01-12T04:29:22.018Z,79.75
2018-01-12T04:30:02.552Z,80.04
2018-01-12T04:30:43.031Z,80.13
2018-01-12T04:31:23.584Z,80.13
2018-01-12T04:32:04.094Z,80.23
2018-01-12T04:32:44.612Z,80.66
2018-01-12T04:33:25.200Z,80.66
2018-01-12T04:34:05.788Z,80.76
2018-01-12T04:34:46.349Z,80.9
2018-01-12T04:35:26.847Z,81.09
2018-01-12T04:36:07.435Z,80.61
2018-01-12T04:36:47.909Z,81.09
2018-01-12T04:37:28.552Z,81.28
2018-01-12T04:38:09.048Z,81.09
2018-01-12T04:38:49.688Z,80.33
2018-01-12T04:39:30.214Z,80.04
2018-01-12T04:40:10.723Z,80.8
2018-01-12T04:40:51.204Z,80.33
2018-01-12T04:41:31.800Z,80.42
2018-01-12T04:42:12.263Z,80.33
2018-01-12T04:42:52.836Z,81.09
2018-01-12T04:43:33.374Z,81.09
2018-01-12T04:44:13.879Z,81.18
2018-01-12T04:44:54.390Z,81.09
2018-01-12T04:45:34.938Z,81.09
2018-01-12T04:46:15.456Z,81.05
2018-01-12T04:46:55.977Z,80.86
2018-01-12T04:47:36.502Z,80.71
2018-01-12T04:48:17.071Z,80.9
2018-01-12T04:48:57.649Z,81.09
2018-01-12T04:49:38.201Z,80.23
2018-01-12T04:50:18.689Z,80.57
2018-01-12T04:50:59.231Z,81.33
2018-01-12T04:51:39.803Z,81.43
2018-01-12T04:52:20.337Z,81.18
2018-01-12T04:53:00.836Z,80.9
2018-01-12T04:53:41.473Z,81.09
2018-01-12T04:54:21.963Z,81.09
2018-01-12T04:55:02.474Z,80.8
2018-01-12T04:55:43.046Z,80.71
2018-01-12T04:56:23.717Z,80.61
2018-01-12T04:57:04.192Z,80.61
2018-01-12T04:57:44.672Z,80.71
2018-01-12T04:58:25.234Z,81.09
2018-01-12T04:59:05.825Z,80.71
2018-01-12T04:59:46.442Z,80.9
2018-01-12T05:00:27.018Z,79.94
2018-01-12T05:01:07.556Z,80.04
2018-01-12T05:01:48.058Z,80.04
2018-01-12T05:02:28.629Z,80.04
2018-01-12T05:03:09.353Z,80.33
2018-01-12T05:03:49.886Z,80.04
2018-01-12T05:04:30.470Z,80.23
2018-01-12T05:05:11.036Z,80.23
2018-01-12T05:05:51.477Z,81.09
2018-01-12T05:06:32.044Z,81.18
2018-01-12T05:07:12.559Z,80.52
2018-01-12T05:07:53.163Z,80.52
2018-01-12T05:08:33.688Z,80.61
2018-01-12T05:09:14.222Z,80.42
2018-01-12T05:09:54.767Z,80.61
2018-01-12T05:10:35.290Z,80.52
2018-01-12T05:11:15.886Z,80.8
2018-01-12T05:11:56.418Z,79.94
2018-01-12T05:12:36.953Z,80.13
2018-01-12T05:13:17.462Z,80.61
2018-01-12T05:13:58.017Z,80.52
2018-01-12T05:14:38.504Z,80.52
2018-01-12T05:15:19.097Z,79.94
2018-01-12T05:15:59.602Z,80.52
2018-01-12T05:16:40.153Z,79.94
2018-01-12T05:17:20.684Z,79.94
2018-01-12T05:18:01.173Z,80.8
2018-01-12T05:18:41.729Z,80.52
2018-01-12T05:19:22.343Z,80.52
2018-01-12T05:20:02.884Z,81.09
2018-01-12T05:20:43.442Z,80.9
2018-01-12T05:21:23.991Z,80.9
2018-01-12T05:22:04.474Z,80.52
2018-01-12T05:22:45.015Z,80.42
2018-01-12T05:23:25.564Z,79.94
2018-01-12T05:24:06.101Z,80.23
2018-01-12T05:24:46.650Z,80.52
2018-01-12T05:25:27.315Z,80.42
2018-01-12T05:26:07.875Z,80.8
2018-01-12T05:26:48.428Z,80.71
2018-01-12T05:27:29.078Z,80.61
2018-01-12T05:28:09.640Z,80.76
2018-01-12T05:28:50.154Z,80.99
2018-01-12T05:29:30.716Z,80.9
2018-01-12T05:30:11.234Z,80.9
2018-01-12T05:30:51.800Z,81.09
2018-01-12T05:31:32.279Z,80.61
2018-01-12T05:32:12.846Z,81.09
2018-01-12T05:32:53.344Z,80.52
2018-01-12T05:33:33.879Z,80.52
2018-01-12T05:34:14.422Z,80.42
2018-01-12T05:34:54.962Z,80.52
2018-01-12T05:35:35.483Z,80.42
2018-01-12T05:36:16.015Z,80.61
2018-01-12T05:36:56.581Z,80.52
2018-01-12T05:37:37.080Z,80.42
2018-01-12T05:38:17.694Z,80.52
2018-01-12T05:38:58.209Z,80.52
2018-01-12T05:39:38.754Z,80.61
2018-01-12T05:40:19.277Z,80.33
2018-01-12T05:40:59.901Z,80.33
2018-01-12T05:41:40.472Z,81.09
2018-01-12T05:42:20.990Z,81.28
2018-01-12T05:43:01.483Z,81.28
2018-01-12T05:43:41.994Z,80.33
2018-01-12T05:44:22.721Z,80.13
2018-01-12T05:45:03.218Z,80.52
2018-01-12T05:45:43.744Z,80.23
2018-01-12T05:46:24.311Z,80.42
2018-01-12T05:47:04.867Z,80.42
2018-01-12T05:47:45.473Z,80.61
2018-01-12T05:48:26.021Z,80.52
2018-01-12T05:49:06.520Z,80.13
2018-01-12T05:49:46.992Z,80.33
2018-01-12T05:50:27.605Z,80.13
2018-01-12T05:51:08.055Z,79.94
2018-01-12T05:51:48.584Z,80.33
2018-01-12T05:52:29.156Z,80.13
2018-01-12T05:53:09.805Z,80.04
2018-01-12T05:53:50.378Z,80.23
2018-01-12T05:54:30.966Z,80.33
2018-01-12T05:55:11.508Z,80.33
2018-01-12T05:55:52.025Z,80.52
2018-01-12T05:56:32.587Z,80.8
2018-01-12T05:57:13.128Z,80.61
2018-01-12T05:57:53.665Z,80.61
2018-01-12T05:58:34.187Z,80.61
2018-01-12T05:59:14.706Z,80.52
2018-01-12T05:59:55.258Z,80.52
2018-01-12T06:00:35.721Z,80.13
2018-01-12T06:01:16.321Z,80.52
2018-01-12T06:01:56.854Z,80.23
2018-01-12T06:02:37.400Z,80.33
2018-01-12T06:03:17.939Z,80.23
2018-01-12T06:03:58.493Z,80.52
2018-01-12T06:04:39.018Z,80.42
2018-01-12T06:05:19.530Z,80.9
2018-01-12T06:06:00.095Z,80.52
2018-01-12T06:06:40.600Z,79.94
2018-01-12T06:07:21.128Z,80.04
2018-01-12T06:08:01.698Z,80.04
2018-01-12T06:08:42.350Z,79.94
2018-01-12T06:09:22.793Z,80.52
2018-01-12T06:10:03.413Z,80.9
2018-01-12T06:10:43.988Z,81.56
2018-01-12T06:11:24.468Z,80.61
2018-01-12T06:12:05.060Z,80.99
2018-01-12T06:12:45.635Z,80.99
2018-01-12T06:13:26.167Z,81.56
2018-01-12T06:14:06.667Z,81.85
2018-01-12T06:14:47.175Z,81.56
2018-01-12T06:15:27.751Z,81.28
2018-01-12T06:16:08.265Z,81.09
2018-01-12T06:16:48.808Z,80.99
2018-01-12T06:17:29.307Z,81.66
2018-01-12T06:18:09.853Z,81.37
2018-01-12T06:18:50.395Z,81.37
2018-01-12T06:19:30.936Z,81.56
2018-01-12T06:20:11.483Z,82.46
2018-01-12T06:20:51.974Z,83.41
2018-01-12T06:21:32.581Z,83.8
2018-01-12T06:22:13.271Z,83.89
2018-01-12T06:22:53.922Z,83.89
2018-01-12T06:23:34.462Z,83.13
2018-01-12T06:24:15.012Z,81.98
2018-01-12T06:24:55.553Z,82.75
2018-01-12T06:25:36.090Z,82.46
2018-01-12T06:26:16.615Z,83.22
2018-01-12T06:26:57.148Z,83.41
2018-01-12T06:27:37.656Z,83.18
2018-01-12T06:28:18.227Z,82.56
2018-01-12T06:28:58.725Z,83.51
2018-01-12T06:29:39.260Z,84.56
2018-01-12T06:30:19.820Z,82.37
2018-01-12T06:31:00.379Z,81.85
2018-01-12T06:31:40.920Z,81.66
2018-01-12T06:32:21.454Z,81.76
2018-01-12T06:33:02.025Z,81.79
2018-01-12T06:33:42.532Z,87.51
2018-01-12T06:34:23.068Z,93.6
2018-01-12T06:35:03.632Z,93.89
2018-01-12T06:35:44.196Z,96.65
2018-01-12T06:36:25.056Z,96.75
2018-01-12T06:37:05.254Z,96.17
2018-01-12T06:37:45.825Z,95.89
2018-01-12T06:38:26.636Z,92.55
2018-01-12T06:39:07.292Z,87.51
2018-01-12T06:39:47.954Z,86.55
2018-01-12T06:40:28.545Z,86.08
2018-01-12T06:41:09.108Z,84.08
2018-01-12T06:41:49.613Z,83.98
2018-01-12T06:42:30.217Z,83.09
2018-01-12T06:43:10.709Z,83.89
2018-01-12T06:43:51.284Z,83.7
2018-01-12T06:44:32.485Z,83.89
2018-01-12T06:45:12.354Z,83.22
2018-01-12T06:45:52.827Z,83.89
2018-01-12T06:46:33.428Z,83.32
2018-01-12T06:47:14.002Z,84.27
2018-01-12T06:47:54.576Z,83.7
2018-01-12T06:48:35.096Z,85.13
2018-01-12T06:49:15.599Z,85.13
2018-01-12T06:49:56.291Z,84.65
2018-01-12T06:50:36.801Z,83.51
2018-01-12T06:51:17.336Z,83.51
2018-01-12T06:51:57.866Z,84.08
2018-01-12T06:52:38.434Z,83.61
2018-01-12T06:53:18.978Z,81.79
2018-01-12T06:53:59.596Z,81.79
2018-01-12T06:54:40.062Z,83.8
2018-01-12T06:55:20.613Z,83.41
2018-01-12T06:56:01.167Z,82.37
2018-01-12T06:56:45.272Z,81.6
2018-01-12T06:58:31.910Z,83.8
2018-01-12T06:59:12.331Z,83.8
2018-01-12T06:59:52.894Z,83.13
2018-01-12T07:00:33.378Z,82.37
2018-01-12T07:01:14.626Z,81.89
2018-01-12T07:01:55.166Z,89.22
2018-01-12T07:02:35.654Z,92.65
2018-01-12T07:03:16.185Z,95.41
2018-01-12T07:03:56.732Z,99.99
2018-01-12T07:04:37.395Z,99.99
2018-01-12T07:05:17.916Z,99.99
2018-01-12T07:05:58.390Z,99.99
2018-01-12T07:06:38.987Z,99.99
2018-01-12T07:07:19.523Z,99.99
2018-01-12T07:08:00.057Z,99.99
2018-01-12T07:08:40.507Z,99.99
2018-01-12T07:09:21.047Z,99.99
2018-01-12T07:10:01.722Z,97.51
2018-01-12T07:11:49.783Z,90.75
2018-01-12T07:12:30.403Z,87.41
2018-01-12T07:13:10.920Z,86.94
2018-01-12T07:13:51.533Z,87.6
2018-01-12T07:14:33.902Z,94.65
2018-01-12T07:15:14.376Z,99.99
2018-01-12T07:15:54.885Z,99.46
2018-01-12T07:16:35.457Z,99.99
2018-01-12T07:17:15.962Z,99.99
2018-01-12T07:17:56.462Z,95.41
2018-01-12T07:18:37.000Z,90.65
2018-01-12T07:19:17.518Z,89.13
2018-01-12T07:19:58.059Z,99.99
2018-01-12T07:20:38.625Z,99.99
2018-01-12T07:21:19.157Z,99.99
2018-01-12T07:21:59.694Z,99.99
2018-01-12T07:22:40.212Z,99.46
2018-01-12T07:23:20.762Z,95.7
2018-01-12T07:24:01.291Z,91.36
2018-01-12T07:24:41.844Z,89.79
2018-01-12T07:25:22.412Z,89.98
2018-01-12T07:26:02.954Z,86.46
2018-01-12T07:26:43.480Z,84.17
2018-01-12T07:27:23.989Z,83.8
2018-01-12T07:28:04.544Z,84.84
2018-01-12T07:28:45.081Z,86.18
2018-01-12T07:29:25.679Z,99.99
2018-01-12T07:30:06.208Z,99.99
2018-01-12T07:30:46.757Z,99.99
2018-01-12T07:31:27.279Z,99.99
2018-01-12T07:32:07.797Z,99.99
2018-01-12T07:32:48.343Z,99.99
2018-01-12T07:33:28.907Z,99.99
2018-01-12T07:34:09.405Z,99.99
2018-01-12T07:34:50.036Z,96.94
2018-01-12T07:35:30.540Z,90.84
2018-01-12T07:36:11.106Z,88.93
2018-01-12T07:36:52.546Z,88.18
2018-01-12T07:37:33.115Z,87.13
2018-01-12T07:38:13.691Z,85.41
2018-01-12T07:38:54.194Z,84.65
2018-01-12T07:39:34.809Z,85.22
2018-01-12T07:40:15.327Z,84.17
2018-01-12T07:40:55.922Z,84.65
2018-01-12T07:41:36.400Z,83.89
2018-01-12T07:42:16.928Z,85.6
2018-01-12T07:42:57.530Z,85.6
2018-01-12T07:43:38.026Z,86.55
2018-01-12T07:44:18.545Z,85.03
2018-01-12T07:44:59.066Z,84.56
2018-01-12T07:45:39.596Z,85.7
2018-01-12T07:46:20.154Z,83.22
2018-01-12T07:47:00.738Z,83.51
2018-01-12T07:47:41.268Z,84.17
2018-01-12T07:48:21.898Z,84.75
2018-01-12T07:49:02.384Z,84.56
2018-01-12T07:49:43.075Z,85.13
2018-01-12T07:50:24.453Z,86.08
2018-01-12T07:51:04.237Z,85.7
2018-01-12T07:51:44.757Z,85.7
2018-01-12T07:52:25.283Z,84.84
2018-01-12T07:53:05.826Z,83.32
2018-01-12T07:53:46.360Z,82.7
2018-01-12T07:54:26.912Z,88.08
2018-01-12T07:55:07.468Z,89.51
2018-01-12T07:55:47.992Z,95.6
2018-01-12T07:56:28.553Z,96.17
2018-01-12T07:57:09.185Z,91.89
2018-01-12T07:57:49.657Z,87.13
2018-01-12T07:58:30.184Z,84.46
2018-01-12T07:59:10.783Z,84.46
2018-01-12T07:59:51.322Z,85.13
2018-01-12T08:00:31.886Z,84.84
2018-01-12T08:01:12.405Z,83.28
2018-01-12T08:01:53.172Z,83.09
2018-01-12T08:02:34.394Z,83.51
2018-01-12T08:03:22.363Z,84.84
2018-01-12T08:04:03.219Z,86.08
2018-01-12T08:04:43.798Z,85.51
2018-01-12T08:05:24.397Z,92.46
2018-01-12T08:06:05.000Z,99.99
2018-01-12T08:06:47.175Z,99.99
2018-01-12T08:07:27.693Z,99.99
2018-01-12T08:08:08.220Z,94.74
2018-01-12T08:08:48.749Z,99.99
2018-01-12T08:09:29.273Z,99.99
2018-01-12T08:10:09.901Z,99.99
2018-01-12T08:10:50.341Z,99.99
2018-01-12T08:11:30.945Z,99.99
2018-01-12T08:12:11.538Z,99.99
2018-01-12T08:12:52.026Z,99.99
2018-01-12T08:13:32.557Z,99.99
2018-01-12T08:14:13.077Z,93.13
2018-01-12T08:14:53.633Z,89.22
2018-01-12T08:15:34.244Z,89.51
2018-01-12T08:16:14.715Z,90.94
2018-01-12T08:16:55.252Z,89.98
2018-01-12T08:17:35.838Z,89.98
2018-01-12T08:18:16.345Z,91.7
2018-01-12T08:18:56.862Z,90.5
2018-01-12T08:19:37.468Z,89.36
2018-01-12T08:20:17.970Z,86.98
2018-01-12T08:20:58.518Z,90.5
2018-01-12T08:21:39.027Z,89.65
2018-01-12T08:22:19.635Z,86.55
2018-01-12T08:23:00.129Z,88.93
2018-01-12T08:23:40.766Z,99.99
2018-01-12T08:24:21.269Z,99.99
2018-01-12T08:25:01.823Z,99.99
2018-01-12T08:25:42.375Z,99.99
2018-01-12T08:26:22.923Z,92.18
2018-01-12T08:27:03.485Z,87.03
2018-01-12T08:27:44.054Z,85.03
2018-01-12T08:28:24.609Z,83.47
2018-01-12T08:29:05.165Z,83.75
2018-01-12T08:29:45.717Z,87.03
2018-01-12T08:30:26.217Z,87.03
2018-01-12T08:31:06.780Z,85.37
2018-01-12T08:31:47.282Z,87.23
2018-01-12T08:32:27.846Z,87.79
2018-01-12T08:33:08.345Z,99.99
2018-01-12T08:33:48.862Z,99.99
2018-01-12T08:34:29.428Z,99.99
2018-01-12T08:35:09.887Z,99.99
2018-01-12T08:35:50.485Z,99.99
2018-01-12T08:36:31.009Z,99.99
2018-01-12T08:37:11.531Z,99.99
2018-01-12T08:37:52.025Z,99.99
2018-01-12T08:38:32.589Z,99.99
2018-01-12T08:39:13.152Z,95.89
2018-01-12T08:39:53.740Z,91.7
2018-01-12T08:40:34.229Z,90.6
2018-01-12T08:41:14.836Z,88.7
2018-01-12T08:41:55.435Z,88.08
2018-01-12T08:42:35.968Z,86.6
2018-01-12T08:43:16.582Z,84.75
2018-01-12T08:43:57.113Z,82.84
2018-01-12T08:44:37.852Z,83.22
2018-01-12T08:45:18.394Z,82.65
2018-01-12T08:45:58.908Z,82.56